Tuesday, October 21, 2014, 11:09 PM EDT

KLNS, Lancaster Airport

Location: Lititz, PA, United States Lat: 40.117
Local Time: 11:09 PM EDT ( 3:09 GMT) Lon: -76.3
Time Zone: US/Eastern Elev: 403 ft

Show me the last for .
Show Decoded

2014-10-21 22:53 METAR KLNS 220253Z AUTO 28003KT 10SM SCT065 BKN110 12/09 A2991 RMK AO2 SLP127
                 T01220094 51016 =
2014-10-21 21:53 METAR KLNS 220153Z 28006KT 10SM FEW041 BKN048 OVC100 13/09 A2990 RMK AO2 SLP126
                 T01280094 =
2014-10-21 20:53 METAR KLNS 220053Z 32005KT 10SM BKN055 14/09 A2989 RMK AO2 SLP120 T01390089 =
2014-10-21 19:53 METAR KLNS 212353Z 36006KT 10SM CLR 14/09 A2986 RMK AO2 SLP112 T01390089 10178
                 20133 51014 =
2014-10-21 18:53 METAR KLNS 212253Z 35004KT 7SM BKN090 13/09 A2985 RMK AO2 SLP110 T01330094 =
2014-10-21 17:53 METAR KLNS 212153Z 33004KT 10SM OVC090 15/09 A2984 RMK AO2 SLP104 T01500089 =
2014-10-21 16:53 METAR KLNS 212053Z 30004KT 10SM CLR 17/08 A2982 RMK AO2 SLP097 T01670083 55002 =
2014-10-21 15:53 METAR KLNS 211953Z 00000KT 10SM CLR 17/09 A2981 RMK AO2 SLP095 T01720089 =
2014-10-21 14:53 METAR KLNS 211853Z 33005KT 10SM OVC055 17/09 A2983 RMK AO2 SLP100 T01670089 =
2014-10-21 13:53 METAR KLNS 211753Z 34006KT 10SM SCT036 BKN050 17/09 A2983 RMK AO2 SLP100
                 T01670094 10172 20089 58016 =
2014-10-21 12:53 METAR KLNS 211653Z 30006KT 10SM FEW027 16/08 A2984 RMK AO2 SLP105 T01610083 =
2014-10-21 11:53 METAR KLNS 211553Z 00000KT 10SM FEW050 16/11 A2986 RMK AO2 SLP112 T01560106 =
2014-10-21 10:53 METAR KLNS 211453Z 00000KT 10SM SCT090 14/10 A2987 RMK AO2 SLP116 T01390100
                 50002 =
2014-10-21 08:53 METAR KLNS 211253Z 00000KT 8SM BKN080 11/09 A2988 RMK AO2 SLP118 T01060094 =
2014-10-21 07:53 METAR KLNS 211153Z 00000KT 3SM BR BKN100 09/08 A2987 RMK AO2 SLP114 60003 70007
                 T00890083 10111 20089 53003 =
2014-10-21 06:53 METAR KLNS 211053Z 00000KT 3SM BR SCT075 SCT085 09/09 A2986 RMK AO2 SLP112
                 T00940089 =
2014-10-21 06:26 METAR KLNS 211026Z 03003KT 4SM BR BKN080 09/09 A2986 RMK AO2 T00940089 =
2014-10-21 05:53 METAR KLNS 210953Z 00000KT 4SM BR BKN080 OVC095 10/09 A2986 RMK AO2 SLP111
                 T01000094 =
2014-10-21 04:53 METAR KLNS 210853Z 07003KT 6SM BR FEW065 BKN085 OVC110 10/09 A2986 RMK AO2
                 SLP110 60003 T01000094 56018 =
2014-10-21 03:53 METAR KLNS 210753Z 08004KT 9SM SCT060 OVC080 11/10 A2986 RMK AO2 RAE04 SLP112
                 P0000 T01110100 =
2014-10-21 02:53 METAR KLNS 210653Z 10004KT 7SM -RA FEW047 SCT055 OVC070 11/10 A2989 RMK AO2
                 SLP122 P0003 T01110100 =
2014-10-21 01:53 METAR KLNS 210553Z 29003KT 5SM -RA BR FEW047 BKN065 OVC080 11/10 A2991 RMK AO2
                 SLP129 P0003 60004 T01110100 10133 20111 56014 =
2014-10-21 00:53 METAR KLNS 210453Z 23004KT 10SM -RA OVC085 12/09 A2992 RMK AO2 RAB19 SLP132
                 P0001 T01170094 401560006 =
2014-10-20 23:53 METAR KLNS 210353Z 18008KT 10SM OVC085 12/09 A2993 RMK AO2 RAE29 SLP133 P0000
                 T01220089 =

Support USWX by starting your Amazon purchase here.